createdAt,value
2022-10-23T00:01:28.705Z,46.92
2022-10-23T00:03:58.772Z,51.78
2022-10-23T00:06:26.450Z,48.55
2022-10-23T00:08:53.831Z,56.17
2022-10-23T00:11:26.750Z,49.88
2022-10-23T00:13:56.037Z,52.67
2022-10-23T00:16:23.390Z,43.15
2022-10-23T00:18:50.374Z,49.03
2022-10-23T00:21:18.652Z,46.20
2022-10-23T00:23:46.370Z,45.05
2022-10-23T00:26:17.179Z,45.83
2022-10-23T00:28:46.327Z,44.67
2022-10-23T00:31:13.647Z,47.35
2022-10-23T00:33:41.254Z,50.45
2022-10-23T00:36:10.869Z,47.53
2022-10-23T00:38:38.809Z,44.50
2022-10-23T00:41:07.442Z,48.42
2022-10-23T00:43:36.055Z,54.92
2022-10-23T00:46:03.041Z,53.13
2022-10-23T00:48:30.081Z,55.08
2022-10-23T00:50:57.395Z,48.70
2022-10-23T00:53:25.137Z,56.17
2022-10-23T00:55:55.000Z,60.53
2022-10-23T00:58:22.306Z,66.63
2022-10-23T01:00:52.378Z,68.57
2022-10-23T01:03:23.537Z,69.28
2022-10-23T01:06:11.193Z,56.53
2022-10-23T01:09:03.246Z,60.15
2022-10-23T01:11:42.439Z,53.33
2022-10-23T01:14:23.712Z,52.58
2022-10-23T01:17:17.970Z,52.42
2022-10-23T01:20:19.893Z,55.03
2022-10-23T01:22:53.790Z,49.00
2022-10-23T01:25:38.851Z,45.72
2022-10-23T01:28:11.762Z,47.20
2022-10-23T01:30:44.438Z,44.05
2022-10-23T01:33:36.919Z,49.25
2022-10-23T01:36:10.552Z,46.53
2022-10-23T01:38:56.631Z,45.78
2022-10-23T01:41:30.706Z,48.13
2022-10-23T01:44:11.375Z,51.80
2022-10-23T01:46:39.754Z,47.00
2022-10-23T01:49:11.932Z,53.20
2022-10-23T01:51:42.615Z,52.00
2022-10-23T01:54:12.664Z,50.78
2022-10-23T01:56:44.118Z,46.05
2022-10-23T01:59:16.442Z,44.00
2022-10-23T02:01:47.477Z,50.15
2022-10-23T02:04:19.340Z,49.15
2022-10-23T02:06:46.328Z,45.10
2022-10-23T02:09:14.410Z,44.33
2022-10-23T02:12:09.973Z,52.22
2022-10-23T02:14:49.329Z,48.92
2022-10-23T02:17:28.444Z,54.50
2022-10-23T02:20:08.691Z,52.85
2022-10-23T02:22:42.618Z,54.88
2022-10-23T02:25:16.275Z,55.03
2022-10-23T02:27:53.876Z,55.05
2022-10-23T02:30:24.323Z,53.78
2022-10-23T02:32:59.822Z,47.40
2022-10-23T02:35:26.767Z,57.15
2022-10-23T02:38:02.992Z,49.22
2022-10-23T02:40:41.280Z,53.00
2022-10-23T02:43:20.195Z,55.72
2022-10-23T02:45:56.133Z,60.72
2022-10-23T02:48:30.530Z,60.78
2022-10-23T02:51:12.034Z,59.38
2022-10-23T02:53:49.341Z,65.72
2022-10-23T02:56:38.618Z,55.77
2022-10-23T02:59:21.532Z,60.20
2022-10-23T03:01:56.208Z,49.22
2022-10-23T03:04:26.209Z,59.50
2022-10-23T03:06:53.282Z,52.53
2022-10-23T03:09:20.242Z,53.65
2022-10-23T03:11:47.166Z,51.20
2022-10-23T03:14:14.441Z,54.83
2022-10-23T03:16:41.375Z,53.83
2022-10-23T03:19:09.592Z,63.45
2022-10-23T03:21:37.123Z,45.88
2022-10-23T03:24:08.100Z,47.20
2022-10-23T03:26:40.570Z,44.38
2022-10-23T03:29:07.566Z,43.72
2022-10-23T03:31:40.743Z,43.08
2022-10-23T03:34:11.258Z,44.00
2022-10-23T03:36:40.650Z,44.33
2022-10-23T03:39:08.822Z,42.58
2022-10-23T03:41:35.786Z,46.42
2022-10-23T03:46:35.177Z,58.38
2022-10-23T03:49:02.153Z,42.47
2022-10-23T03:51:29.181Z,42.80
2022-10-23T03:53:57.829Z,45.53
2022-10-23T03:56:24.858Z,43.83
2022-10-23T03:58:51.756Z,46.70
2022-10-23T04:01:18.816Z,40.13
2022-10-23T04:03:46.443Z,50.83
2022-10-23T04:06:15.519Z,50.35
2022-10-23T04:08:46.002Z,44.17
2022-10-23T04:11:15.737Z,53.42
2022-10-23T04:13:46.259Z,50.97
2022-10-23T04:16:15.547Z,49.78
2022-10-23T04:18:44.438Z,49.10
2022-10-23T04:21:12.014Z,47.47
2022-10-23T04:23:39.357Z,42.63
2022-10-23T04:26:12.325Z,51.97
2022-10-23T04:28:39.591Z,47.67
2022-10-23T04:31:06.619Z,52.60
2022-10-23T04:33:33.937Z,47.33
2022-10-23T04:36:01.180Z,49.15
2022-10-23T04:38:28.199Z,62.00
2022-10-23T04:40:55.145Z,53.58
2022-10-23T04:43:23.106Z,46.42
2022-10-23T04:45:50.322Z,50.80
2022-10-23T04:48:17.863Z,46.75
2022-10-23T04:51:20.099Z,39.38
2022-10-23T04:54:12.885Z,41.35
2022-10-23T04:56:42.566Z,43.92
2022-10-23T04:59:14.840Z,46.83
2022-10-23T05:01:42.580Z,41.58
2022-10-23T05:04:09.933Z,50.17
2022-10-23T05:06:59.705Z,39.97
2022-10-23T05:09:45.267Z,59.22
2022-10-23T05:12:23.046Z,56.17
2022-10-23T05:14:50.011Z,74.38
2022-10-23T05:17:37.627Z,41.35
2022-10-23T05:20:09.867Z,39.38
2022-10-23T05:22:41.572Z,43.53
2022-10-23T05:25:11.350Z,40.30
2022-10-23T05:27:41.256Z,38.35
2022-10-23T05:30:11.992Z,37.33
2022-10-23T05:32:39.416Z,42.08
2022-10-23T05:35:19.616Z,43.25
2022-10-23T05:37:51.070Z,47.58
2022-10-23T05:40:21.605Z,44.05
2022-10-23T05:42:51.122Z,44.70
2022-10-23T05:45:21.784Z,43.40
2022-10-23T05:48:34.677Z,45.50
2022-10-23T05:51:23.024Z,46.28
2022-10-23T05:54:13.464Z,43.15
2022-10-23T05:57:02.295Z,39.63
2022-10-23T06:02:25.900Z,50.25
2022-10-23T06:04:59.230Z,42.20
2022-10-23T06:07:59.690Z,39.47
2022-10-23T06:10:27.497Z,38.97
2022-10-23T06:12:57.367Z,41.10
2022-10-23T06:15:26.450Z,38.65
2022-10-23T06:18:05.463Z,41.45
2022-10-23T06:20:37.378Z,43.55
2022-10-23T06:23:18.119Z,55.53
2022-10-23T06:26:07.769Z,46.85
2022-10-23T06:28:48.600Z,43.90
2022-10-23T06:31:16.768Z,45.13
2022-10-23T06:33:43.655Z,44.17
2022-10-23T06:36:10.960Z,51.92
2022-10-23T06:38:40.954Z,44.00
2022-10-23T06:41:14.337Z,44.22
2022-10-23T06:43:41.819Z,52.65
2022-10-23T06:46:19.019Z,41.58
2022-10-23T06:49:05.896Z,45.80
2022-10-23T06:51:38.916Z,41.42
2022-10-23T06:54:11.831Z,41.78
2022-10-23T06:56:51.359Z,37.70
2022-10-23T06:59:22.580Z,37.92
2022-10-23T07:01:51.890Z,35.85
2022-10-23T07:04:19.027Z,37.72
2022-10-23T07:06:46.130Z,32.55
2022-10-23T07:09:13.284Z,32.38
2022-10-23T07:11:52.396Z,36.88
2022-10-23T07:14:23.429Z,32.85
2022-10-23T07:16:50.494Z,30.77
2022-10-23T07:19:17.591Z,32.72
2022-10-23T07:22:09.727Z,38.08
2022-10-23T07:24:44.760Z,34.28
2022-10-23T07:27:18.998Z,37.70
2022-10-23T07:29:52.626Z,34.90
2022-10-23T07:32:19.724Z,39.78
2022-10-23T07:40:18.867Z,35.33
2022-10-23T07:42:45.905Z,31.17
2022-10-23T07:45:13.563Z,30.38
2022-10-23T07:47:43.534Z,39.05
2022-10-23T07:50:13.111Z,28.95
2022-10-23T07:52:39.978Z,37.53
2022-10-23T07:55:16.563Z,36.60
2022-10-23T07:57:49.951Z,37.05
2022-10-23T08:03:13.649Z,42.67
2022-10-23T08:05:41.159Z,38.50
2022-10-23T08:08:09.060Z,34.42
2022-10-23T08:10:38.609Z,42.60
2022-10-23T08:13:13.087Z,44.42
2022-10-23T08:15:53.408Z,40.72
2022-10-23T08:18:52.861Z,34.10
2022-10-23T08:21:20.167Z,37.85
2022-10-23T08:23:49.189Z,43.58
2022-10-23T08:26:16.412Z,41.22
2022-10-23T08:28:43.329Z,41.38
2022-10-23T08:31:16.529Z,32.00
2022-10-23T08:33:56.736Z,32.67
2022-10-23T08:36:26.322Z,40.75
2022-10-23T08:38:55.479Z,37.60
2022-10-23T08:41:47.798Z,38.03
2022-10-23T08:44:21.331Z,41.03
2022-10-23T08:46:56.042Z,42.03
2022-10-23T08:49:50.151Z,38.70
2022-10-23T08:52:25.783Z,38.97
2022-10-23T08:55:04.764Z,31.25
2022-10-23T08:57:40.048Z,38.67
2022-10-23T09:00:15.124Z,25.35
2022-10-23T09:02:48.186Z,27.27
2022-10-23T09:05:30.717Z,32.25
2022-10-23T09:08:08.694Z,30.08
2022-10-23T09:10:46.019Z,30.85
2022-10-23T09:13:34.901Z,29.65
2022-10-23T09:16:28.108Z,29.38
2022-10-23T09:18:56.021Z,30.05
2022-10-23T09:21:29.070Z,32.58
2022-10-23T09:23:57.048Z,26.90
2022-10-23T09:26:23.976Z,29.60
2022-10-23T09:29:01.430Z,27.70
2022-10-23T09:31:28.378Z,28.08
2022-10-23T09:34:01.296Z,29.83
2022-10-23T09:36:29.638Z,24.92
2022-10-23T09:39:01.677Z,30.80
2022-10-23T09:41:38.576Z,28.05
2022-10-23T09:44:08.561Z,33.60
2022-10-23T09:46:43.102Z,36.28
2022-10-23T09:49:28.206Z,30.25
2022-10-23T09:51:59.902Z,30.92
2022-10-23T09:54:29.189Z,33.75
2022-10-23T09:57:03.561Z,38.67
2022-10-23T09:59:32.363Z,30.05
2022-10-23T10:02:01.729Z,37.88
2022-10-23T10:04:59.466Z,31.75
2022-10-23T10:07:31.139Z,30.58
2022-10-23T10:10:00.551Z,30.48
2022-10-23T10:12:39.402Z,36.38
2022-10-23T10:15:44.905Z,22.25
2022-10-23T10:18:19.508Z,27.55
2022-10-23T10:20:52.737Z,24.98
2022-10-23T10:23:33.357Z,22.08
2022-10-23T10:26:10.018Z,24.08
2022-10-23T10:28:42.490Z,26.80
2022-10-23T10:31:19.644Z,19.00
2022-10-23T10:34:14.631Z,19.02
2022-10-23T10:37:03.067Z,20.35
2022-10-23T10:40:20.376Z,19.40
2022-10-23T10:43:10.865Z,18.88
2022-10-23T10:55:15.187Z,20.05
2022-10-23T10:57:46.703Z,21.60
2022-10-23T11:00:14.719Z,19.63
2022-10-23T11:02:48.715Z,18.15
2022-10-23T11:05:25.775Z,17.05
2022-10-23T11:07:57.067Z,17.08
2022-10-23T11:10:24.375Z,20.90
2022-10-23T11:12:52.070Z,21.42
2022-10-23T11:15:25.916Z,25.35
2022-10-23T11:17:58.992Z,17.98
2022-10-23T11:20:51.242Z,18.27
2022-10-23T11:23:42.995Z,29.58
2022-10-23T11:26:16.221Z,20.67
2022-10-23T11:28:48.869Z,20.50
2022-10-23T11:31:46.422Z,15.65
2022-10-23T11:34:58.199Z,26.15
2022-10-23T11:37:26.925Z,14.75
2022-10-23T11:40:13.830Z,17.67
2022-10-23T11:42:41.024Z,18.35
2022-10-23T11:45:29.984Z,19.13
2022-10-23T11:48:35.247Z,13.55
2022-10-23T11:51:05.236Z,19.75
2022-10-23T11:53:32.389Z,18.52
2022-10-23T11:56:02.224Z,17.33
2022-10-23T11:58:42.489Z,19.58
2022-10-23T12:01:41.177Z,15.52
2022-10-23T12:04:14.043Z,16.25
2022-10-23T12:06:45.567Z,20.75
2022-10-23T12:09:45.304Z,17.15
2022-10-23T12:12:12.211Z,23.40
2022-10-23T12:14:40.643Z,18.55
2022-10-23T12:17:32.685Z,18.55
2022-10-23T12:20:12.498Z,17.45
2022-10-23T12:23:01.088Z,23.05
2022-10-23T12:25:57.180Z,15.40
2022-10-23T12:28:48.926Z,29.50
2022-10-23T12:31:45.566Z,27.42
2022-10-23T12:34:55.300Z,18.20
2022-10-23T12:37:42.923Z,18.35
2022-10-23T12:40:10.915Z,17.10
2022-10-23T12:42:38.472Z,13.07
2022-10-23T12:45:25.077Z,23.17
2022-10-23T12:47:52.922Z,19.40
2022-10-23T12:50:25.414Z,21.85
2022-10-23T12:52:53.176Z,16.70
2022-10-23T12:55:20.689Z,21.02
2022-10-23T12:57:47.934Z,18.90
2022-10-23T13:00:18.681Z,22.73
2022-10-23T13:02:45.993Z,23.27
2022-10-23T13:05:19.766Z,14.52
2022-10-23T13:07:48.457Z,17.40
2022-10-23T13:10:21.367Z,19.38
2022-10-23T13:13:02.746Z,22.30
2022-10-23T13:15:44.139Z,20.58
2022-10-23T13:18:14.557Z,19.55
2022-10-23T13:21:03.305Z,15.70
2022-10-23T13:23:33.377Z,17.33
2022-10-23T13:26:18.680Z,17.90
2022-10-23T13:28:46.446Z,16.55
2022-10-23T13:31:13.353Z,15.55
2022-10-23T13:33:44.179Z,20.13
2022-10-23T13:36:13.820Z,23.75
2022-10-23T13:38:42.040Z,22.38
2022-10-23T13:41:16.515Z,19.55
2022-10-23T13:43:44.670Z,21.33
2022-10-23T13:46:21.185Z,19.45
2022-10-23T13:48:48.615Z,23.55
2022-10-23T13:51:22.591Z,18.08
2022-10-23T13:53:50.138Z,20.02
2022-10-23T13:56:19.511Z,17.13
2022-10-23T13:58:46.593Z,21.70
2022-10-23T14:01:24.954Z,24.50
2022-10-23T14:03:53.371Z,20.58
2022-10-23T14:06:20.401Z,21.08
2022-10-23T14:08:47.410Z,25.13
2022-10-23T14:11:16.696Z,21.75
2022-10-23T14:13:43.759Z,25.98
2022-10-23T14:16:13.545Z,23.65
2022-10-23T14:18:40.893Z,18.63
2022-10-23T14:21:09.561Z,21.70
2022-10-23T14:23:36.588Z,24.35
2022-10-23T14:26:12.426Z,23.48
2022-10-23T14:28:39.562Z,22.57
2022-10-23T14:31:08.522Z,30.92
2022-10-23T14:33:35.655Z,20.60
2022-10-23T14:36:02.997Z,22.48
2022-10-23T14:38:29.932Z,24.95
2022-10-23T14:40:56.953Z,35.13
2022-10-23T14:43:24.618Z,29.40
2022-10-23T14:45:52.309Z,26.10
2022-10-23T14:48:19.326Z,30.02
2022-10-23T14:50:48.355Z,19.55
2022-10-23T14:53:16.216Z,32.75
2022-10-23T14:55:43.113Z,25.88
2022-10-23T14:58:10.103Z,22.35
2022-10-23T15:00:37.040Z,29.08
2022-10-23T15:03:03.987Z,27.05
2022-10-23T15:05:30.927Z,28.02
2022-10-23T15:07:59.152Z,30.13
2022-10-23T15:10:26.162Z,26.48
2022-10-23T15:12:53.080Z,25.08
2022-10-23T15:15:20.020Z,23.38
2022-10-23T15:17:46.896Z,20.17
2022-10-23T15:20:13.818Z,30.98
2022-10-23T15:22:40.868Z,19.63
2022-10-23T15:25:08.418Z,16.42
2022-10-23T15:27:35.398Z,23.40
2022-10-23T15:30:02.540Z,20.50
2022-10-23T15:32:29.547Z,23.40
2022-10-23T15:34:58.352Z,35.72
2022-10-23T15:37:25.328Z,37.10
2022-10-23T15:39:52.517Z,31.58
2022-10-23T15:42:19.571Z,35.00
2022-10-23T15:44:47.139Z,46.63
2022-10-23T15:47:14.189Z,32.13
2022-10-23T15:49:41.228Z,33.15
2022-10-23T15:54:37.785Z,29.75
2022-10-23T15:57:05.007Z,29.17
2022-10-23T15:59:32.445Z,33.50
2022-10-23T16:01:59.899Z,32.05
2022-10-23T16:04:28.707Z,35.03
2022-10-23T16:06:55.742Z,44.55
2022-10-23T16:09:22.699Z,36.50
2022-10-23T16:11:49.632Z,41.22
2022-10-23T16:14:17.623Z,57.88
2022-10-23T16:16:44.796Z,56.55
2022-10-23T16:19:12.561Z,52.38
2022-10-23T16:21:39.947Z,44.70
2022-10-23T16:24:08.332Z,40.92
2022-10-23T16:26:36.654Z,53.78
2022-10-23T16:29:06.297Z,61.78
2022-10-23T16:31:33.793Z,76.30
2022-10-23T16:34:02.111Z,55.53
2022-10-23T16:36:29.776Z,52.85
2022-10-23T16:39:07.532Z,58.30
2022-10-23T16:41:53.390Z,59.45
2022-10-23T16:44:21.055Z,72.68
2022-10-23T16:47:00.590Z,66.32
2022-10-23T16:49:29.915Z,63.58
2022-10-23T16:51:56.861Z,39.50
2022-10-23T16:54:23.850Z,35.17
2022-10-23T16:56:50.920Z,29.08
2022-10-23T16:59:17.875Z,32.58
2022-10-23T17:01:45.107Z,35.35
2022-10-23T17:04:12.061Z,26.35
2022-10-23T17:06:39.146Z,27.25
2022-10-23T17:09:06.205Z,33.67
2022-10-23T17:11:36.035Z,34.45
2022-10-23T17:14:08.800Z,31.58
2022-10-23T17:16:40.399Z,38.80
2022-10-23T17:19:20.547Z,41.67
2022-10-23T17:21:55.561Z,41.53
2022-10-23T17:24:23.257Z,36.22
2022-10-23T17:26:50.514Z,25.83
2022-10-23T17:29:18.502Z,41.53
2022-10-23T17:31:47.982Z,42.97
2022-10-23T17:34:18.270Z,37.88
2022-10-23T17:36:48.179Z,33.97
2022-10-23T17:39:17.580Z,39.38
2022-10-23T17:41:45.268Z,44.92
2022-10-23T17:44:12.602Z,45.72
2022-10-23T17:46:39.595Z,52.95
2022-10-23T17:49:06.885Z,50.25
2022-10-23T17:51:35.712Z,37.92
2022-10-23T17:54:05.743Z,43.10
2022-10-23T17:56:34.044Z,34.10
2022-10-23T17:59:04.568Z,36.97
2022-10-23T18:01:32.059Z,47.35
2022-10-23T18:04:05.614Z,34.22
2022-10-23T18:06:36.895Z,39.60
2022-10-23T18:09:05.493Z,33.20
2022-10-23T18:11:35.655Z,34.78
2022-10-23T18:14:03.731Z,32.80
2022-10-23T18:16:30.758Z,28.15
2022-10-23T18:19:00.550Z,37.00
2022-10-23T18:21:28.132Z,39.17
2022-10-23T18:23:55.290Z,45.72
2022-10-23T18:26:26.486Z,35.75
2022-10-23T18:28:59.382Z,43.85
2022-10-23T18:31:30.449Z,53.03
2022-10-23T18:33:59.174Z,50.33
2022-10-23T18:36:28.941Z,44.22
2022-10-23T18:41:28.190Z,41.28
2022-10-23T18:43:55.280Z,38.45
2022-10-23T18:46:22.472Z,37.42
2022-10-23T18:48:52.754Z,38.78
2022-10-23T18:51:29.872Z,30.88
2022-10-23T18:53:57.749Z,36.97
2022-10-23T18:56:26.796Z,36.78
2022-10-23T18:58:58.230Z,36.85
2022-10-23T19:01:27.348Z,48.20
2022-10-23T19:06:23.830Z,37.47
2022-10-23T19:08:51.217Z,46.70
2022-10-23T19:11:21.307Z,34.63
2022-10-23T19:13:48.427Z,33.03
2022-10-23T19:16:18.221Z,31.95
2022-10-23T19:18:53.606Z,34.95
2022-10-23T19:21:24.415Z,40.42
2022-10-23T19:23:52.543Z,31.58
2022-10-23T19:26:19.825Z,30.65
2022-10-23T19:28:49.109Z,28.67
2022-10-23T19:31:16.341Z,40.28
2022-10-23T19:33:43.497Z,41.70
2022-10-23T19:36:14.108Z,35.88
2022-10-23T19:38:42.311Z,32.40
2022-10-23T19:41:09.972Z,32.92
2022-10-23T19:43:37.992Z,36.78
2022-10-23T19:46:09.403Z,51.10
2022-10-23T19:48:42.577Z,38.53
2022-10-23T19:51:09.725Z,30.45
2022-10-23T19:53:36.832Z,41.50
2022-10-23T19:56:06.675Z,37.15
2022-10-23T19:58:34.118Z,42.50
2022-10-23T20:01:08.862Z,45.58
2022-10-23T20:03:36.023Z,46.78
2022-10-23T20:06:03.313Z,47.25
2022-10-23T20:08:32.753Z,53.13
2022-10-23T20:11:02.125Z,43.95
2022-10-23T20:13:29.075Z,45.97
2022-10-23T20:15:56.049Z,58.60
2022-10-23T20:18:23.030Z,63.55
2022-10-23T20:20:49.966Z,49.70
2022-10-23T20:23:16.968Z,56.00
2022-10-23T20:25:44.028Z,60.70
2022-10-23T20:28:14.262Z,48.55
2022-10-23T20:30:44.151Z,51.65
2022-10-23T20:33:11.100Z,59.25
2022-10-23T20:35:42.723Z,36.45
2022-10-23T20:38:10.261Z,43.15
2022-10-23T20:40:37.490Z,55.42
2022-10-23T20:43:04.492Z,54.03
2022-10-23T20:45:31.487Z,51.92
2022-10-23T20:47:58.402Z,57.95
2022-10-23T20:50:25.392Z,60.17
2022-10-23T20:52:52.455Z,62.47
2022-10-23T20:55:20.009Z,55.78
2022-10-23T20:57:47.362Z,36.30
2022-10-23T21:00:15.736Z,41.47
2022-10-23T21:02:45.766Z,51.30
2022-10-23T21:05:14.307Z,55.03
2022-10-23T21:07:41.177Z,65.50
2022-10-23T21:10:08.401Z,61.55
2022-10-23T21:12:35.371Z,64.20
2022-10-23T21:15:02.273Z,64.55
2022-10-23T21:17:35.886Z,74.43
2022-10-23T21:20:03.284Z,59.17
2022-10-23T21:22:30.283Z,48.17
2022-10-23T21:24:58.572Z,42.13
2022-10-23T21:27:25.870Z,45.53
2022-10-23T21:29:52.767Z,52.78
2022-10-23T21:32:20.962Z,54.55
2022-10-23T21:34:47.914Z,54.15
2022-10-23T21:37:15.216Z,64.70
2022-10-23T21:39:43.270Z,50.30
2022-10-23T21:42:12.184Z,41.08
2022-10-23T21:44:39.096Z,47.80
2022-10-23T21:47:06.064Z,48.38
2022-10-23T21:49:33.098Z,35.00
2022-10-23T21:52:01.615Z,45.13
2022-10-23T21:54:29.201Z,56.90
2022-10-23T21:56:56.766Z,73.28
2022-10-23T21:59:29.982Z,62.60
2022-10-23T22:01:59.935Z,59.50
2022-10-23T22:04:27.774Z,54.00
2022-10-23T22:06:55.453Z,46.50
2022-10-23T22:09:23.730Z,45.53
2022-10-23T22:11:53.445Z,53.50
2022-10-23T22:14:21.333Z,44.83
2022-10-23T22:16:48.753Z,50.08
2022-10-23T22:19:17.444Z,45.13
2022-10-23T22:21:44.714Z,51.17
2022-10-23T22:24:12.446Z,46.50
2022-10-23T22:26:42.918Z,51.60
2022-10-23T22:29:14.211Z,46.83
2022-10-23T22:31:44.232Z,47.92
2022-10-23T22:34:26.677Z,52.20
2022-10-23T22:37:01.051Z,51.80
2022-10-23T22:39:27.969Z,49.50
2022-10-23T22:41:54.914Z,45.85
2022-10-23T22:44:21.924Z,55.35
2022-10-23T22:46:48.932Z,60.22
2022-10-23T22:49:16.605Z,40.67
2022-10-23T22:51:43.586Z,49.97
2022-10-23T22:54:10.635Z,52.63
2022-10-23T22:56:37.602Z,50.42
2022-10-23T22:59:05.141Z,51.97
2022-10-23T23:01:41.512Z,57.22
2022-10-23T23:04:26.081Z,49.65
2022-10-23T23:06:55.497Z,57.13
2022-10-23T23:09:22.426Z,47.20
2022-10-23T23:11:52.807Z,56.22
2022-10-23T23:14:23.725Z,54.45
2022-10-23T23:16:53.285Z,59.17
2022-10-23T23:19:23.027Z,47.63
2022-10-23T23:21:50.593Z,48.75
2022-10-23T23:24:17.474Z,54.33
2022-10-23T23:26:44.403Z,58.63
2022-10-23T23:29:11.704Z,51.38
2022-10-23T23:31:38.715Z,61.25
2022-10-23T23:34:05.653Z,48.15
2022-10-23T23:36:33.984Z,57.47
2022-10-23T23:39:01.469Z,56.80
2022-10-23T23:41:29.177Z,53.10
2022-10-23T23:43:57.977Z,58.00
2022-10-23T23:46:25.766Z,54.92
2022-10-23T23:48:52.716Z,44.05
2022-10-23T23:51:22.328Z,33.63
2022-10-23T23:53:50.140Z,42.17
2022-10-23T23:56:18.108Z,40.38
2022-10-23T23:58:45.073Z,38.30
